Time,TemperatureF,DewpointF,PressureIn,WindDirection,WindDirectionDegrees,WindSpeedMPH,WindSpeedGustMPH,Humidity,HourlyPrecipIn,Conditions,Clouds,dailyrainin,SoftwareType,DateUTC
2013-02-12 00:00:00,45.0,41.0,-100.00,West,269,2.0,17.0,87,-99.99,,,-99.99,,2013-02-12 05:00:00,
2013-02-12 00:22:00,45.0,41.0,-100.00,West,269,2.0,17.0,87,-99.99,,,-99.99,,2013-02-12 05:22:00,
2013-02-12 00:32:00,45.0,41.0,-100.00,West,269,2.0,17.0,87,-99.99,,,-99.99,,2013-02-12 05:32:00,
2013-02-12 00:42:00,45.0,41.0,-100.00,West,269,2.0,17.0,87,-99.99,,,-99.99,,2013-02-12 05:42:00,
2013-02-12 00:52:00,45.0,41.0,-100.00,West,269,2.0,17.0,87,-99.99,,,-99.99,,2013-02-12 05:52:00,
2013-02-12 01:00:00,42.0,39.0,-100.00,WNW,293,0.0,8.0,90,-99.99,,,-99.99,,2013-02-12 06:00:00,
2013-02-12 01:22:00,42.0,39.0,-100.00,WNW,293,0.0,8.0,90,-99.99,,,-99.99,,2013-02-12 06:22:00,
2013-02-12 01:32:00,42.0,39.0,-100.00,WNW,293,0.0,8.0,90,-99.99,,,-99.99,,2013-02-12 06:32:00,
2013-02-12 01:42:00,42.0,39.0,-100.00,WNW,293,0.0,8.0,90,-99.99,,,-99.99,,2013-02-12 06:42:00,
2013-02-12 01:52:00,42.0,39.0,-100.00,WNW,293,0.0,8.0,90,-99.99,,,-99.99,,2013-02-12 06:52:00,
2013-02-12 02:00:00,42.0,36.0,-100.00,West,265,0.0,11.0,81,-99.99,,,-99.99,,2013-02-12 07:00:00,
2013-02-12 02:22:00,42.0,36.0,-100.00,West,265,0.0,11.0,81,-99.99,,,-99.99,,2013-02-12 07:22:00,
2013-02-12 02:32:00,42.0,36.0,-100.00,West,265,0.0,11.0,81,-99.99,,,-99.99,,2013-02-12 07:32:00,
2013-02-12 02:42:00,42.0,36.0,-100.00,West,265,0.0,11.0,81,-99.99,,,-99.99,,2013-02-12 07:42:00,
2013-02-12 02:52:00,42.0,36.0,-100.00,West,265,0.0,11.0,81,-99.99,,,-99.99,,2013-02-12 07:52:00,
2013-02-12 03:00:00,41.0,32.0,-100.00,WNW,293,0.0,15.0,72,-99.99,,,-99.99,,2013-02-12 08:00:00,
2013-02-12 03:32:00,41.0,32.0,-100.00,WNW,293,0.0,15.0,72,-99.99,,,-99.99,,2013-02-12 08:32:00,
2013-02-12 03:42:00,41.0,32.0,-100.00,WNW,293,0.0,15.0,72,-99.99,,,-99.99,,2013-02-12 08:42:00,
2013-02-12 03:52:00,41.0,32.0,-100.00,WNW,293,0.0,15.0,72,-99.99,,,-99.99,,2013-02-12 08:52:00,
2013-02-12 04:00:00,39.0,28.0,-100.00,WNW,286,4.0,14.0,64,-99.99,,,-99.99,,2013-02-12 09:00:00,
2013-02-12 04:32:00,39.0,28.0,-100.00,WNW,286,4.0,14.0,64,-99.99,,,-99.99,,2013-02-12 09:32:00,
2013-02-12 04:42:00,39.0,28.0,-100.00,WNW,286,4.0,14.0,64,-99.99,,,-99.99,,2013-02-12 09:42:00,
2013-02-12 04:52:00,39.0,28.0,-100.00,WNW,286,4.0,14.0,64,-99.99,,,-99.99,,2013-02-12 09:52:00,
2013-02-12 05:00:00,39.0,27.0,-100.00,West,278,0.0,9.0,62,-99.99,,,-99.99,,2013-02-12 10:00:00,
2013-02-12 05:22:00,39.0,27.0,-100.00,West,278,0.0,9.0,62,-99.99,,,-99.99,,2013-02-12 10:22:00,
2013-02-12 05:32:00,39.0,27.0,-100.00,West,278,0.0,9.0,62,-99.99,,,-99.99,,2013-02-12 10:32:00,
2013-02-12 05:43:00,39.0,27.0,-100.00,West,278,0.0,9.0,62,-99.99,,,-99.99,,2013-02-12 10:43:00,
2013-02-12 05:52:00,39.0,27.0,-100.00,West,278,0.0,9.0,62,-99.99,,,-99.99,,2013-02-12 10:52:00,
2013-02-12 06:00:00,39.0,26.0,-100.00,NW,310,0.0,11.0,61,-99.99,,,-99.99,,2013-02-12 11:00:00,
2013-02-12 06:32:00,39.0,26.0,-100.00,NW,310,0.0,11.0,61,-99.99,,,-99.99,,2013-02-12 11:32:00,
2013-02-12 06:42:00,39.0,26.0,-100.00,NW,310,0.0,11.0,61,-99.99,,,-99.99,,2013-02-12 11:42:00,
2013-02-12 06:53:00,39.0,26.0,-100.00,NW,310,0.0,11.0,61,-99.99,,,-99.99,,2013-02-12 11:53:00,
2013-02-12 07:00:00,38.0,23.0,-100.00,SW,229,3.0,14.0,54,-99.99,,,-99.99,,2013-02-12 12:00:00,
2013-02-12 07:22:00,38.0,23.0,-100.00,SW,229,3.0,14.0,54,-99.99,,,-99.99,,2013-02-12 12:22:00,
2013-02-12 07:32:00,38.0,23.0,-100.00,SW,229,3.0,14.0,54,-99.99,,,-99.99,,2013-02-12 12:32:00,
2013-02-12 07:42:00,38.0,23.0,-100.00,SW,229,3.0,14.0,54,-99.99,,,-99.99,,2013-02-12 12:42:00,
2013-02-12 07:53:00,38.0,23.0,-100.00,SW,229,3.0,14.0,54,-99.99,,,-99.99,,2013-02-12 12:53:00,
2013-02-12 08:00:00,41.0,23.0,-100.00,NW,318,7.0,21.0,49,-99.99,,,-99.99,,2013-02-12 13:00:00,
2013-02-12 08:22:00,41.0,23.0,-100.00,NW,318,7.0,21.0,49,-99.99,,,-99.99,,2013-02-12 13:22:00,
2013-02-12 08:32:00,41.0,23.0,-100.00,NW,318,7.0,21.0,49,-99.99,,,-99.99,,2013-02-12 13:32:00,
2013-02-12 08:42:00,41.0,23.0,-100.00,NW,318,7.0,21.0,49,-99.99,,,-99.99,,2013-02-12 13:42:00,
2013-02-12 08:52:00,41.0,23.0,-100.00,NW,318,7.0,21.0,49,-99.99,,,-99.99,,2013-02-12 13:52:00,
2013-02-12 09:00:00,43.0,24.0,-100.00,SW,235,5.0,21.0,46,-99.99,,,-99.99,,2013-02-12 14:00:00,
2013-02-12 09:22:00,43.0,24.0,-100.00,SW,235,5.0,21.0,46,-99.99,,,-99.99,,2013-02-12 14:22:00,
2013-02-12 09:32:00,43.0,24.0,-100.00,SW,235,5.0,21.0,46,-99.99,,,-99.99,,2013-02-12 14:32:00,
2013-02-12 09:42:00,43.0,24.0,-100.00,SW,235,5.0,21.0,46,-99.99,,,-99.99,,2013-02-12 14:42:00,
2013-02-12 09:52:00,43.0,24.0,-100.00,SW,235,5.0,21.0,46,-99.99,,,-99.99,,2013-02-12 14:52:00,
2013-02-12 10:00:00,45.0,24.0,-100.00,South,182,0.0,21.0,45,-99.99,,,-99.99,,2013-02-12 15:00:00,
2013-02-12 10:22:00,45.0,24.0,-100.00,South,182,0.0,21.0,45,-99.99,,,-99.99,,2013-02-12 15:22:00,
2013-02-12 10:32:00,45.0,24.0,-100.00,South,182,0.0,21.0,45,-99.99,,,-99.99,,2013-02-12 15:32:00,
2013-02-12 10:42:00,45.0,24.0,-100.00,South,182,0.0,21.0,45,-99.99,,,-99.99,,2013-02-12 15:42:00,
2013-02-12 10:52:00,45.0,24.0,-100.00,South,182,0.0,21.0,45,-99.99,,,-99.99,,2013-02-12 15:52:00,
2013-02-12 11:00:00,46.0,24.0,-100.00,WNW,301,3.0,24.0,42,-99.99,,,-99.99,,2013-02-12 16:00:00,
2013-02-12 11:32:00,46.0,24.0,-100.00,WNW,301,3.0,24.0,42,-99.99,,,-99.99,,2013-02-12 16:32:00,
2013-02-12 11:42:00,46.0,24.0,-100.00,WNW,301,3.0,24.0,42,-99.99,,,-99.99,,2013-02-12 16:42:00,
2013-02-12 11:52:00,46.0,24.0,-100.00,WNW,301,3.0,24.0,42,-99.99,,,-99.99,,2013-02-12 16:52:00,
2013-02-12 12:00:00,46.0,24.0,-100.00,North,355,5.0,22.0,41,-99.99,,,-99.99,,2013-02-12 17:00:00,
2013-02-12 12:32:00,46.0,24.0,-100.00,North,355,5.0,22.0,41,-99.99,,,-99.99,,2013-02-12 17:32:00,
2013-02-12 12:42:00,46.0,24.0,-100.00,North,355,5.0,22.0,41,-99.99,,,-99.99,,2013-02-12 17:42:00,
2013-02-12 12:52:00,46.0,24.0,-100.00,North,355,5.0,22.0,41,-99.99,,,-99.99,,2013-02-12 17:52:00,
2013-02-12 13:00:00,46.0,25.0,-100.00,WSW,248,6.0,22.0,42,-99.99,,,-99.99,,2013-02-12 18:00:00,
2013-02-12 13:23:00,46.0,25.0,-100.00,WSW,248,6.0,22.0,42,-99.99,,,-99.99,,2013-02-12 18:23:00,
2013-02-12 13:32:00,46.0,25.0,-100.00,WSW,248,6.0,22.0,42,-99.99,,,-99.99,,2013-02-12 18:32:00,
2013-02-12 13:42:00,46.0,25.0,-100.00,WSW,248,6.0,22.0,42,-99.99,,,-99.99,,2013-02-12 18:42:00,
2013-02-12 13:52:00,46.0,25.0,-100.00,WSW,248,6.0,22.0,42,-99.99,,,-99.99,,2013-02-12 18:52:00,
2013-02-12 14:00:00,47.0,25.0,-100.00,West,278,4.0,16.0,41,-99.99,,,-99.99,,2013-02-12 19:00:00,
2013-02-12 14:21:00,47.0,25.0,-100.00,West,278,4.0,16.0,41,-99.99,,,-99.99,,2013-02-12 19:21:00,
2013-02-12 14:32:00,47.0,25.0,-100.00,West,278,4.0,16.0,41,-99.99,,,-99.99,,2013-02-12 19:32:00,
2013-02-12 14:42:00,47.0,25.0,-100.00,West,278,4.0,16.0,41,-99.99,,,-99.99,,2013-02-12 19:42:00,
2013-02-12 14:52:00,47.0,25.0,-100.00,West,278,4.0,16.0,41,-99.99,,,-99.99,,2013-02-12 19:52:00,
2013-02-12 15:00:00,46.0,24.0,-100.00,SSW,198,2.0,16.0,41,-99.99,,,-99.99,,2013-02-12 20:00:00,
2013-02-12 15:22:00,46.0,24.0,-100.00,SSW,198,2.0,16.0,41,-99.99,,,-99.99,,2013-02-12 20:22:00,
2013-02-12 15:32:00,46.0,24.0,-100.00,SSW,198,2.0,16.0,41,-99.99,,,-99.99,,2013-02-12 20:32:00,
2013-02-12 15:42:00,46.0,24.0,-100.00,SSW,198,2.0,16.0,41,-99.99,,,-99.99,,2013-02-12 20:42:00,
2013-02-12 15:52:00,46.0,24.0,-100.00,SSW,198,2.0,16.0,41,-99.99,,,-99.99,,2013-02-12 20:52:00,
2013-02-12 16:00:00,45.0,24.0,-100.00,NW,325,5.0,16.0,43,-99.99,,,-99.99,,2013-02-12 21:00:00,
2013-02-12 16:21:00,45.0,24.0,-100.00,NW,325,5.0,16.0,43,-99.99,,,-99.99,,2013-02-12 21:21:00,
2013-02-12 16:32:00,45.0,24.0,-100.00,NW,325,5.0,16.0,43,-99.99,,,-99.99,,2013-02-12 21:32:00,
2013-02-12 16:42:00,45.0,24.0,-100.00,NW,325,5.0,16.0,43,-99.99,,,-99.99,,2013-02-12 21:42:00,
2013-02-12 16:52:00,45.0,24.0,-100.00,NW,325,5.0,16.0,43,-99.99,,,-99.99,,2013-02-12 21:52:00,
2013-02-12 17:00:00,42.0,23.0,-100.00,WSW,237,8.0,12.0,47,-99.99,,,-99.99,,2013-02-12 22:00:00,
2013-02-12 17:22:00,42.0,23.0,-100.00,WSW,237,8.0,12.0,47,-99.99,,,-99.99,,2013-02-12 22:22:00,
2013-02-12 17:32:00,42.0,23.0,-100.00,WSW,237,8.0,12.0,47,-99.99,,,-99.99,,2013-02-12 22:32:00,
2013-02-12 17:42:00,42.0,23.0,-100.00,WSW,237,8.0,12.0,47,-99.99,,,-99.99,,2013-02-12 22:42:00,
2013-02-12 17:52:00,42.0,23.0,-100.00,WSW,237,8.0,12.0,47,-99.99,,,-99.99,,2013-02-12 22:52:00,
2013-02-12 18:00:00,39.0,22.0,-100.00,West,267,2.0,11.0,50,-99.99,,,-99.99,,2013-02-12 23:00:00,
2013-02-12 18:21:00,39.0,22.0,-100.00,West,267,2.0,11.0,50,-99.99,,,-99.99,,2013-02-12 23:21:00,
2013-02-12 18:32:00,39.0,22.0,-100.00,West,267,2.0,11.0,50,-99.99,,,-99.99,,2013-02-12 23:32:00,
2013-02-12 18:42:00,39.0,22.0,-100.00,West,267,2.0,11.0,50,-99.99,,,-99.99,,2013-02-12 23:42:00,
2013-02-12 18:52:00,39.0,22.0,-100.00,West,267,2.0,11.0,50,-99.99,,,-99.99,,2013-02-12 23:52:00,
2013-02-12 19:00:00,38.0,23.0,-100.00,North,349,0.0,9.0,54,-99.99,,,-99.99,,2013-02-13 00:00:00,
2013-02-12 19:22:00,38.0,23.0,-100.00,North,349,0.0,9.0,54,-99.99,,,-99.99,,2013-02-13 00:22:00,
2013-02-12 19:32:00,38.0,23.0,-100.00,North,349,0.0,9.0,54,-99.99,,,-99.99,,2013-02-13 00:32:00,
2013-02-12 19:42:00,38.0,23.0,-100.00,North,349,0.0,9.0,54,-99.99,,,-99.99,,2013-02-13 00:42:00,
2013-02-12 19:52:00,38.0,23.0,-100.00,North,349,0.0,9.0,54,-99.99,,,-99.99,,2013-02-13 00:52:00,
2013-02-12 20:00:00,37.0,23.0,-100.00,WNW,287,4.0,5.0,56,-99.99,,,-99.99,,2013-02-13 01:00:00,
2013-02-12 20:21:00,37.0,23.0,-100.00,WNW,287,4.0,5.0,56,-99.99,,,-99.99,,2013-02-13 01:21:00,
2013-02-12 20:32:00,37.0,23.0,-100.00,WNW,287,4.0,5.0,56,-99.99,,,-99.99,,2013-02-13 01:32:00,
2013-02-12 20:42:00,37.0,23.0,-100.00,WNW,287,4.0,5.0,56,-99.99,,,-99.99,,2013-02-13 01:42:00,
2013-02-12 20:52:00,37.0,23.0,-100.00,WNW,287,4.0,5.0,56,-99.99,,,-99.99,,2013-02-13 01:52:00,
2013-02-12 21:00:00,34.0,22.0,-100.00,NW,322,0.0,5.0,61,-99.99,,,-99.99,,2013-02-13 02:00:00,
2013-02-12 21:22:00,34.0,22.0,-100.00,NW,322,0.0,5.0,61,-99.99,,,-99.99,,2013-02-13 02:22:00,
2013-02-12 21:32:00,34.0,22.0,-100.00,NW,322,0.0,5.0,61,-99.99,,,-99.99,,2013-02-13 02:32:00,
2013-02-12 21:42:00,34.0,22.0,-100.00,NW,322,0.0,5.0,61,-99.99,,,-99.99,,2013-02-13 02:42:00,
2013-02-12 21:52:00,34.0,22.0,-100.00,NW,322,0.0,5.0,61,-99.99,,,-99.99,,2013-02-13 02:52:00,
2013-02-12 22:00:00,32.0,23.0,-100.00,SW,218,0.0,0.0,71,-99.99,,,-99.99,,2013-02-13 03:00:00,
2013-02-12 22:21:00,32.0,23.0,-100.00,SW,218,0.0,0.0,71,-99.99,,,-99.99,,2013-02-13 03:21:00,
2013-02-12 22:32:00,32.0,23.0,-100.00,SW,218,0.0,0.0,71,-99.99,,,-99.99,,2013-02-13 03:32:00,
2013-02-12 22:42:00,32.0,23.0,-100.00,SW,218,0.0,0.0,71,-99.99,,,-99.99,,2013-02-13 03:42:00,
2013-02-12 22:52:00,32.0,23.0,-100.00,SW,218,0.0,0.0,71,-99.99,,,-99.99,,2013-02-13 03:52:00,
2013-02-12 23:00:00,31.0,23.0,-100.00,WSW,240,0.0,4.0,72,-99.99,,,-99.99,,2013-02-13 04:00:00,
2013-02-12 23:21:00,31.0,23.0,-100.00,WSW,240,0.0,4.0,72,-99.99,,,-99.99,,2013-02-13 04:21:00,
2013-02-12 23:32:00,31.0,23.0,-100.00,WSW,240,0.0,4.0,72,-99.99,,,-99.99,,2013-02-13 04:32:00,
2013-02-12 23:42:00,31.0,23.0,-100.00,WSW,240,0.0,4.0,72,-99.99,,,-99.99,,2013-02-13 04:42:00,
2013-02-12 23:52:00,31.0,23.0,-100.00,WSW,240,0.0,4.0,72,-99.99,,,-99.99,,2013-02-13 04:52:00,